createdAt,value
2018-12-21T00:02:01.591Z,32.90
2018-12-21T00:04:29.861Z,31.77
2018-12-21T00:06:58.015Z,31.20
2018-12-21T00:09:26.131Z,34.27
2018-12-21T00:11:54.633Z,35.50
2018-12-21T00:14:22.781Z,33.37
2018-12-21T00:16:50.938Z,32.83
2018-12-21T00:19:19.054Z,32.43
2018-12-21T00:21:47.180Z,30.07
2018-12-21T00:24:15.348Z,31.80
2018-12-21T00:26:43.501Z,33.03
2018-12-21T00:29:11.614Z,33.37
2018-12-21T00:31:45.462Z,32.03
2018-12-21T00:34:19.126Z,32.43
2018-12-21T00:36:53.020Z,34.27
2018-12-21T00:39:26.833Z,34.60
2018-12-21T00:41:55.124Z,31.07
2018-12-21T00:44:25.224Z,34.43
2018-12-21T00:46:55.331Z,33.83
2018-12-21T00:49:23.637Z,33.83
2018-12-21T00:51:51.814Z,33.17
2018-12-21T00:54:19.932Z,34.03
2018-12-21T00:56:48.060Z,33.60
2018-12-21T00:59:16.177Z,32.00
2018-12-21T01:01:44.338Z,32.37
2018-12-21T01:04:12.523Z,33.43
2018-12-21T01:06:40.648Z,32.80
2018-12-21T01:09:09.235Z,31.60
2018-12-21T01:11:37.354Z,31.67
2018-12-21T01:14:05.503Z,30.93
2018-12-21T01:16:33.640Z,32.00
2018-12-21T01:19:01.742Z,31.67
2018-12-21T01:21:29.914Z,35.80
2018-12-21T01:23:58.023Z,31.83
2018-12-21T01:26:26.179Z,32.63
2018-12-21T01:28:54.320Z,32.03
2018-12-21T01:31:22.445Z,32.63
2018-12-21T01:33:50.578Z,33.23
2018-12-21T01:36:18.729Z,32.40
2018-12-21T01:38:46.849Z,32.07
2018-12-21T01:41:14.995Z,34.33
2018-12-21T01:43:43.124Z,32.73
2018-12-21T01:46:11.246Z,34.37
2018-12-21T01:48:39.393Z,33.97
2018-12-21T01:51:07.517Z,34.60
2018-12-21T01:53:35.639Z,35.77
2018-12-21T01:56:03.854Z,35.23
2018-12-21T01:58:31.998Z,35.37
2018-12-21T02:01:00.207Z,32.63
2018-12-21T02:03:28.333Z,35.23
2018-12-21T02:05:56.440Z,35.87
2018-12-21T02:08:24.576Z,34.93
2018-12-21T02:10:52.681Z,33.57
2018-12-21T02:13:20.828Z,35.20
2018-12-21T02:15:48.936Z,33.13
2018-12-21T02:18:17.090Z,31.60
2018-12-21T02:20:45.215Z,32.90
2018-12-21T02:23:13.346Z,35.83
2018-12-21T02:25:41.465Z,30.43
2018-12-21T02:28:09.649Z,32.80
2018-12-21T02:30:37.770Z,34.23
2018-12-21T02:33:05.895Z,33.97
2018-12-21T02:35:34.042Z,35.50
2018-12-21T02:38:02.156Z,35.23
2018-12-21T02:40:30.309Z,35.90
2018-12-21T02:42:58.532Z,34.30
2018-12-21T02:45:26.651Z,32.07
2018-12-21T02:47:54.790Z,33.57
2018-12-21T02:50:22.933Z,34.13
2018-12-21T02:52:51.067Z,34.77
2018-12-21T02:55:19.185Z,34.30
2018-12-21T02:57:47.313Z,32.67
2018-12-21T03:00:15.448Z,32.23
2018-12-21T03:02:43.578Z,33.50
2018-12-21T03:05:11.715Z,32.37
2018-12-21T03:07:40.998Z,33.87
2018-12-21T03:10:09.148Z,32.47
2018-12-21T03:12:37.260Z,33.77
2018-12-21T03:15:05.788Z,33.17
2018-12-21T03:17:33.933Z,32.67
2018-12-21T03:20:02.177Z,32.03
2018-12-21T03:22:30.294Z,33.00
2018-12-21T03:24:58.413Z,34.00
2018-12-21T03:27:26.559Z,34.10
2018-12-21T03:29:54.709Z,33.70
2018-12-21T03:32:22.841Z,32.60
2018-12-21T03:34:51.105Z,33.80
2018-12-21T03:37:19.206Z,33.57
2018-12-21T03:39:47.340Z,33.07
2018-12-21T03:42:15.468Z,36.30
2018-12-21T03:44:43.587Z,33.67
2018-12-21T03:47:11.727Z,32.50
2018-12-21T03:49:39.873Z,33.70
2018-12-21T03:52:07.992Z,34.07
2018-12-21T03:54:36.129Z,33.50
2018-12-21T03:57:04.277Z,31.50
2018-12-21T03:59:32.398Z,32.93
2018-12-21T04:02:00.584Z,31.17
2018-12-21T04:04:28.715Z,36.03
2018-12-21T04:06:56.833Z,32.60
2018-12-21T04:09:24.950Z,34.17
2018-12-21T04:11:53.069Z,33.30
2018-12-21T04:14:21.594Z,31.63
2018-12-21T04:16:49.851Z,31.87
2018-12-21T04:19:18.028Z,32.43
2018-12-21T04:21:46.144Z,32.43
2018-12-21T04:24:14.442Z,33.77
2018-12-21T04:26:42.627Z,31.87
2018-12-21T04:29:10.787Z,31.90
2018-12-21T04:31:38.917Z,32.33
2018-12-21T04:34:07.018Z,31.60
2018-12-21T04:36:35.242Z,32.23
2018-12-21T04:39:05.189Z,32.93
2018-12-21T04:41:33.364Z,32.33
2018-12-21T04:44:01.599Z,31.87
2018-12-21T04:46:29.782Z,31.03
2018-12-21T04:48:57.936Z,30.87
2018-12-21T04:51:26.045Z,31.20
2018-12-21T04:53:54.165Z,34.20
2018-12-21T04:56:22.335Z,33.60
2018-12-21T04:58:50.468Z,31.27
2018-12-21T05:01:18.595Z,32.73
2018-12-21T05:03:46.783Z,33.73
2018-12-21T05:06:14.929Z,32.23
2018-12-21T05:08:43.075Z,33.33
2018-12-21T05:11:11.272Z,30.70
2018-12-21T05:13:39.902Z,32.97
2018-12-21T05:16:08.116Z,30.83
2018-12-21T05:18:36.233Z,29.93
2018-12-21T05:21:04.366Z,32.10
2018-12-21T05:23:32.504Z,31.53
2018-12-21T05:26:00.685Z,30.03
2018-12-21T05:28:28.846Z,32.93
2018-12-21T05:30:56.972Z,33.00
2018-12-21T05:33:25.186Z,31.73
2018-12-21T05:35:53.343Z,30.53
2018-12-21T05:38:21.500Z,32.50
2018-12-21T05:40:49.605Z,30.67
2018-12-21T05:43:17.764Z,30.93
2018-12-21T05:45:45.874Z,30.57
2018-12-21T05:48:14.000Z,30.03
2018-12-21T05:50:42.121Z,34.00
2018-12-21T05:53:11.037Z,30.17
2018-12-21T05:55:39.245Z,34.40
2018-12-21T05:58:07.394Z,29.73
2018-12-21T06:00:35.815Z,29.90
2018-12-21T06:03:03.946Z,33.00
2018-12-21T06:05:32.056Z,30.33
2018-12-21T06:08:00.276Z,30.63
2018-12-21T06:10:28.392Z,32.17
2018-12-21T06:12:57.229Z,30.50
2018-12-21T06:15:25.410Z,30.27
2018-12-21T06:17:53.555Z,30.60
2018-12-21T06:20:21.777Z,32.10
2018-12-21T06:22:49.899Z,29.13
2018-12-21T06:25:18.004Z,29.07
2018-12-21T06:27:46.153Z,31.97
2018-12-21T06:30:14.294Z,30.37
2018-12-21T06:32:42.433Z,29.63
2018-12-21T06:35:10.541Z,29.67
2018-12-21T06:37:38.732Z,28.33
2018-12-21T06:40:06.874Z,29.37
2018-12-21T06:42:35.024Z,28.57
2018-12-21T06:45:03.172Z,30.27
2018-12-21T06:47:31.274Z,30.00
2018-12-21T06:49:59.432Z,29.70
2018-12-21T06:52:27.550Z,29.50
2018-12-21T06:54:55.655Z,28.33
2018-12-21T06:57:23.795Z,28.00
2018-12-21T06:59:52.150Z,27.47
2018-12-21T07:02:20.276Z,28.47
2018-12-21T07:04:48.389Z,28.40
2018-12-21T07:07:16.538Z,29.47
2018-12-21T07:09:44.675Z,27.53
2018-12-21T07:12:12.941Z,29.07
2018-12-21T07:14:41.085Z,29.97
2018-12-21T07:17:09.205Z,28.90
2018-12-21T07:19:37.323Z,27.20
2018-12-21T07:22:05.490Z,29.67
2018-12-21T07:24:33.603Z,26.93
2018-12-21T07:27:01.731Z,28.93
2018-12-21T07:29:29.932Z,26.03
2018-12-21T07:31:58.137Z,27.23
2018-12-21T07:34:56.101Z,26.10
2018-12-21T07:37:24.242Z,25.10
2018-12-21T07:39:52.430Z,26.87
2018-12-21T07:42:20.571Z,25.27
2018-12-21T07:44:48.736Z,29.53
2018-12-21T07:47:16.854Z,28.50
2018-12-21T07:49:45.013Z,26.60
2018-12-21T07:52:13.136Z,29.20
2018-12-21T07:54:41.269Z,28.87
2018-12-21T07:57:09.440Z,27.67
2018-12-21T07:59:37.552Z,27.33
2018-12-21T08:02:05.748Z,26.53
2018-12-21T08:04:33.900Z,26.60
2018-12-21T08:07:02.020Z,27.50
2018-12-21T08:09:30.134Z,26.00
2018-12-21T08:11:58.337Z,28.80
2018-12-21T08:14:26.448Z,26.87
2018-12-21T08:16:54.558Z,25.10
2018-12-21T08:19:22.729Z,26.30
2018-12-21T08:21:50.853Z,27.33
2018-12-21T08:24:18.961Z,28.30
2018-12-21T08:26:47.106Z,23.77
2018-12-21T08:29:15.239Z,24.43
2018-12-21T08:31:43.361Z,26.10
2018-12-21T08:34:11.575Z,23.77
2018-12-21T08:36:39.890Z,24.03
2018-12-21T08:39:08.020Z,25.97
2018-12-21T08:41:36.185Z,26.00
2018-12-21T08:44:04.327Z,22.37
2018-12-21T08:46:32.433Z,24.97
2018-12-21T08:49:00.560Z,25.57
2018-12-21T08:51:28.678Z,26.23
2018-12-21T08:53:56.818Z,27.63
2018-12-21T08:56:25.079Z,26.70
2018-12-21T08:58:53.197Z,23.47
2018-12-21T09:01:21.318Z,24.33
2018-12-21T09:03:49.471Z,25.70
2018-12-21T09:06:18.520Z,22.63
2018-12-21T09:08:47.932Z,22.60
2018-12-21T09:11:16.033Z,25.40
2018-12-21T09:13:44.181Z,24.37
2018-12-21T09:16:12.289Z,25.90
2018-12-21T09:18:40.446Z,23.53
2018-12-21T09:21:08.591Z,25.57
2018-12-21T09:23:36.713Z,23.87
2018-12-21T09:26:04.878Z,25.77
2018-12-21T09:28:33.009Z,23.33
2018-12-21T09:31:01.132Z,23.10
2018-12-21T09:33:29.270Z,25.07
2018-12-21T09:35:57.393Z,24.37
2018-12-21T09:38:25.781Z,23.63
2018-12-21T09:40:53.889Z,24.63
2018-12-21T09:43:22.046Z,22.13
2018-12-21T09:45:50.164Z,22.17
2018-12-21T09:48:19.149Z,24.90
2018-12-21T09:50:47.289Z,24.87
2018-12-21T09:53:16.190Z,22.83
2018-12-21T09:55:44.329Z,24.07
2018-12-21T09:58:12.479Z,24.73
2018-12-21T10:00:40.584Z,22.33
2018-12-21T10:03:08.736Z,22.17
2018-12-21T10:05:36.941Z,23.60
2018-12-21T10:08:05.087Z,22.63
2018-12-21T10:10:33.202Z,22.70
2018-12-21T10:13:01.338Z,20.07
2018-12-21T10:15:29.567Z,21.97
2018-12-21T10:17:57.720Z,23.63
2018-12-21T10:20:25.833Z,21.57
2018-12-21T10:22:54.558Z,21.93
2018-12-21T10:25:22.672Z,21.53
2018-12-21T10:27:50.814Z,22.77
2018-12-21T10:30:25.266Z,21.20
2018-12-21T10:32:53.723Z,23.40
2018-12-21T10:35:21.857Z,21.83
2018-12-21T10:37:49.973Z,22.77
2018-12-21T10:40:18.138Z,20.53
2018-12-21T10:42:46.252Z,22.93
2018-12-21T10:45:14.429Z,20.63
2018-12-21T10:47:42.582Z,22.50
2018-12-21T10:50:11.190Z,23.50
2018-12-21T10:52:39.330Z,19.93
2018-12-21T10:55:07.438Z,22.30
2018-12-21T10:57:35.616Z,20.17
2018-12-21T11:00:07.784Z,19.63
2018-12-21T11:02:35.970Z,23.23
2018-12-21T11:05:05.555Z,20.10
2018-12-21T11:07:33.688Z,21.63
2018-12-21T11:10:01.847Z,19.07
2018-12-21T11:12:29.993Z,21.23
2018-12-21T11:14:58.107Z,21.00
2018-12-21T11:17:26.230Z,23.50
2018-12-21T11:19:54.411Z,20.63
2018-12-21T11:22:22.531Z,22.50
2018-12-21T11:24:50.649Z,21.23
2018-12-21T11:27:18.805Z,21.33
2018-12-21T11:29:46.957Z,19.93
2018-12-21T11:32:15.932Z,19.30
2018-12-21T11:34:44.089Z,21.87
2018-12-21T11:37:12.314Z,19.23
2018-12-21T11:39:40.425Z,20.63
2018-12-21T11:42:08.571Z,20.17
2018-12-21T11:44:36.811Z,19.27
2018-12-21T11:47:04.909Z,21.63
2018-12-21T11:49:33.094Z,19.40
2018-12-21T11:52:01.200Z,20.57
2018-12-21T11:54:29.320Z,20.17
2018-12-21T11:56:57.477Z,20.23
2018-12-21T11:59:25.616Z,18.50
2018-12-21T12:01:53.978Z,19.10
2018-12-21T12:04:22.103Z,19.80
2018-12-21T12:06:50.278Z,21.93
2018-12-21T12:09:18.434Z,18.57
2018-12-21T12:11:46.563Z,18.17
2018-12-21T12:14:14.750Z,19.93
2018-12-21T12:16:42.903Z,19.67
2018-12-21T12:19:11.029Z,20.00
2018-12-21T12:21:39.167Z,20.53
2018-12-21T12:24:07.383Z,19.63
2018-12-21T12:26:35.498Z,20.57
2018-12-21T12:29:03.633Z,19.10
2018-12-21T12:31:31.825Z,18.50
2018-12-21T12:33:59.953Z,19.17
2018-12-21T12:36:28.053Z,18.73
2018-12-21T12:38:56.208Z,18.47
2018-12-21T12:41:24.328Z,18.77
2018-12-21T12:43:52.437Z,20.40
2018-12-21T12:46:20.592Z,16.37
2018-12-21T12:48:48.722Z,19.17
2018-12-21T12:51:16.917Z,17.97
2018-12-21T12:53:45.731Z,19.97
2018-12-21T12:56:13.866Z,19.10
2018-12-21T12:58:41.972Z,18.23
2018-12-21T13:01:11.116Z,19.83
2018-12-21T13:03:39.240Z,17.17
2018-12-21T13:06:07.354Z,17.93
2018-12-21T13:08:35.514Z,19.50
2018-12-21T13:11:03.791Z,19.13
2018-12-21T13:13:31.942Z,17.90
2018-12-21T13:16:00.862Z,18.87
2018-12-21T13:18:28.979Z,18.00
2018-12-21T13:20:57.163Z,19.17
2018-12-21T13:23:25.905Z,18.77
2018-12-21T13:25:54.009Z,16.00
2018-12-21T13:28:22.154Z,16.80
2018-12-21T13:30:50.316Z,16.37
2018-12-21T13:33:18.440Z,16.53
2018-12-21T13:35:46.559Z,16.17
2018-12-21T13:38:14.687Z,16.67
2018-12-21T13:40:42.825Z,17.90
2018-12-21T13:43:12.113Z,16.77
2018-12-21T13:45:41.239Z,16.70
2018-12-21T13:48:09.356Z,16.70
2018-12-21T13:50:37.474Z,16.20
2018-12-21T13:53:05.626Z,17.80
2018-12-21T13:55:33.999Z,16.53
2018-12-21T13:58:02.190Z,16.33
2018-12-21T14:00:30.379Z,17.07
2018-12-21T14:02:58.507Z,16.57
2018-12-21T14:05:26.619Z,16.57
2018-12-21T14:07:55.744Z,15.33
2018-12-21T14:10:23.840Z,17.00
2018-12-21T14:12:51.959Z,18.27
2018-12-21T14:15:20.103Z,14.23
2018-12-21T14:17:48.231Z,16.23
2018-12-21T14:20:16.423Z,15.90
2018-12-21T14:22:44.581Z,16.53
2018-12-21T14:25:12.712Z,16.40
2018-12-21T14:27:40.856Z,14.43
2018-12-21T14:30:08.981Z,15.37
2018-12-21T14:32:37.119Z,16.37
2018-12-21T14:35:06.946Z,17.03
2018-12-21T14:37:35.088Z,16.97
2018-12-21T14:40:03.923Z,15.17
2018-12-21T14:42:32.034Z,16.10
2018-12-21T14:45:00.244Z,16.37
2018-12-21T14:47:28.400Z,13.03
2018-12-21T14:49:56.538Z,15.00
2018-12-21T14:52:24.670Z,14.87
2018-12-21T14:54:52.818Z,15.10
2018-12-21T14:57:21.007Z,14.53
2018-12-21T14:59:49.201Z,15.63
2018-12-21T15:02:17.301Z,15.67
2018-12-21T15:04:47.021Z,14.90
2018-12-21T15:07:15.169Z,15.07
2018-12-21T15:09:43.312Z,14.50
2018-12-21T15:12:11.428Z,13.97
2018-12-21T15:14:39.692Z,14.47
2018-12-21T15:17:09.543Z,15.07
2018-12-21T15:19:37.748Z,14.00
2018-12-21T15:22:05.998Z,14.43
2018-12-21T15:24:34.115Z,15.17
2018-12-21T15:27:02.236Z,13.50
2018-12-21T15:29:30.459Z,14.30
2018-12-21T15:31:58.568Z,15.13
2018-12-21T15:34:26.705Z,16.17
2018-12-21T15:36:56.104Z,14.50
2018-12-21T15:39:24.242Z,14.23
2018-12-21T15:41:52.417Z,15.43
2018-12-21T15:44:20.554Z,15.83
2018-12-21T15:46:48.738Z,13.17
2018-12-21T15:49:16.857Z,13.97
2018-12-21T15:51:44.971Z,13.60
2018-12-21T15:54:13.117Z,15.40
2018-12-21T15:56:41.870Z,14.53
2018-12-21T15:59:10.018Z,15.97
2018-12-21T16:01:38.913Z,14.43
2018-12-21T16:04:07.038Z,13.80
2018-12-21T16:06:35.743Z,14.47
2018-12-21T16:09:06.358Z,16.63
2018-12-21T16:11:34.499Z,15.40
2018-12-21T16:14:03.567Z,16.23
2018-12-21T16:16:31.685Z,13.97
2018-12-21T16:19:00.919Z,17.03
2018-12-21T16:21:29.041Z,14.30
2018-12-21T16:23:57.624Z,15.37
2018-12-21T16:26:25.797Z,16.27
2018-12-21T16:28:53.924Z,15.83
2018-12-21T16:31:22.050Z,14.10
2018-12-21T16:33:50.195Z,14.07
2018-12-21T16:36:18.309Z,15.77
2018-12-21T16:38:46.460Z,14.67
2018-12-21T16:41:14.617Z,15.10
2018-12-21T16:43:42.751Z,14.30
2018-12-21T16:46:10.875Z,14.90
2018-12-21T16:48:39.087Z,13.83
2018-12-21T16:51:07.220Z,15.40
2018-12-21T16:53:36.003Z,13.57
2018-12-21T16:56:12.201Z,12.97
2018-12-21T16:58:34.311Z,14.47
2018-12-21T17:01:02.430Z,14.90
2018-12-21T17:03:30.564Z,14.10
2018-12-21T17:05:59.738Z,15.07
2018-12-21T17:08:28.056Z,13.67
2018-12-21T17:10:56.170Z,342.43
2018-12-21T17:13:24.333Z,209.03
2018-12-21T17:15:52.455Z,127.13
2018-12-21T17:18:20.613Z,84.07
2018-12-21T17:20:48.889Z,51.83
2018-12-21T17:23:16.994Z,55.70
2018-12-21T17:25:45.151Z,45.90
2018-12-21T17:28:13.271Z,46.63
2018-12-21T17:30:41.446Z,50.43
2018-12-21T17:33:10.070Z,42.93
2018-12-21T17:35:38.196Z,46.20
2018-12-21T17:38:06.356Z,41.67
2018-12-21T17:40:34.483Z,39.00
2018-12-21T17:43:02.631Z,44.43
2018-12-21T17:45:30.810Z,41.90
2018-12-21T17:47:58.969Z,40.30
2018-12-21T17:50:27.109Z,41.13
2018-12-21T17:52:55.232Z,32.83
2018-12-21T17:55:24.043Z,39.30
2018-12-21T17:57:52.984Z,39.80
2018-12-21T18:00:21.108Z,32.13
2018-12-21T18:02:50.076Z,35.87
2018-12-21T18:05:18.667Z,37.83
2018-12-21T18:07:46.821Z,36.13
2018-12-21T18:10:14.988Z,37.17
2018-12-21T18:12:43.106Z,36.10
2018-12-21T18:15:11.225Z,35.23
2018-12-21T18:17:39.447Z,34.20
2018-12-21T18:20:10.334Z,32.83
2018-12-21T18:22:38.474Z,31.17
2018-12-21T18:25:11.378Z,32.90
2018-12-21T18:27:39.509Z,31.23
2018-12-21T18:30:17.606Z,30.50
2018-12-21T18:32:45.731Z,33.17
2018-12-21T18:35:14.004Z,34.13
2018-12-21T18:37:46.116Z,30.47
2018-12-21T18:40:14.235Z,29.20
2018-12-21T18:42:42.402Z,28.73
2018-12-21T18:45:10.523Z,29.37
2018-12-21T18:47:38.647Z,29.53
2018-12-21T18:50:09.799Z,28.00
2018-12-21T18:52:37.994Z,27.73
2018-12-21T18:55:10.567Z,31.73
2018-12-21T18:57:38.766Z,30.80
2018-12-21T19:00:11.218Z,27.83
2018-12-21T19:02:39.340Z,26.13
2018-12-21T19:05:07.454Z,27.20
2018-12-21T19:07:35.593Z,28.17
2018-12-21T19:10:04.890Z,26.43
2018-12-21T19:12:33.041Z,26.63
2018-12-21T19:15:01.181Z,27.00
2018-12-21T19:17:29.348Z,26.33
2018-12-21T19:19:57.471Z,25.83
2018-12-21T19:22:25.588Z,27.73
2018-12-21T19:24:53.730Z,26.20
2018-12-21T19:27:21.894Z,25.13
2018-12-21T19:29:50.051Z,26.60
2018-12-21T19:32:18.177Z,26.30
2018-12-21T19:34:48.538Z,25.53
2018-12-21T19:37:16.657Z,24.63
2018-12-21T19:39:44.815Z,27.00
2018-12-21T19:42:12.997Z,24.20
2018-12-21T19:44:41.143Z,25.73
2018-12-21T19:47:09.258Z,24.83
2018-12-21T19:49:37.426Z,24.30
2018-12-21T19:52:05.543Z,25.00
2018-12-21T19:54:33.657Z,25.53
2018-12-21T19:57:05.112Z,23.03
2018-12-21T19:59:33.209Z,23.23
2018-12-21T20:02:01.332Z,25.73
2018-12-21T20:04:29.454Z,25.23
2018-12-21T20:06:57.574Z,24.10
2018-12-21T20:09:25.713Z,25.10
2018-12-21T20:11:53.891Z,22.00
2018-12-21T20:14:22.129Z,23.87
2018-12-21T20:16:50.323Z,25.30
2018-12-21T20:19:18.474Z,21.97
2018-12-21T20:21:46.636Z,22.43
2018-12-21T20:24:14.751Z,22.70
2018-12-21T20:26:45.286Z,21.67
2018-12-21T20:29:13.405Z,21.70
2018-12-21T20:31:41.529Z,22.37
2018-12-21T20:34:09.669Z,22.77
2018-12-21T20:36:37.789Z,21.30
2018-12-21T20:39:09.894Z,21.33
2018-12-21T20:41:38.411Z,23.07
2018-12-21T20:44:06.558Z,20.83
2018-12-21T20:46:34.957Z,20.67
2018-12-21T20:49:03.074Z,21.23
2018-12-21T20:51:31.238Z,19.17
2018-12-21T20:53:59.366Z,18.43
2018-12-21T20:56:27.487Z,20.43
2018-12-21T20:58:56.436Z,20.63
2018-12-21T21:01:25.526Z,22.50
2018-12-21T21:03:53.705Z,20.10
2018-12-21T21:06:21.954Z,20.33
2018-12-21T21:08:50.061Z,19.27
2018-12-21T21:11:24.284Z,18.93
2018-12-21T21:13:48.892Z,17.00
2018-12-21T21:16:17.014Z,18.33
2018-12-21T21:18:45.175Z,21.77
2018-12-21T21:21:13.316Z,20.40
2018-12-21T21:23:41.511Z,19.07
2018-12-21T21:26:09.769Z,19.87
2018-12-21T21:28:38.150Z,17.47
2018-12-21T21:31:06.275Z,18.47
2018-12-21T21:33:34.392Z,18.77
2018-12-21T21:36:02.582Z,18.43
2018-12-21T21:38:30.696Z,17.60
2018-12-21T21:40:58.813Z,17.17
2018-12-21T21:43:26.973Z,17.87
2018-12-21T21:45:55.092Z,17.20
2018-12-21T21:48:23.210Z,18.23
2018-12-21T21:50:51.390Z,16.03
2018-12-21T21:53:19.507Z,15.40
2018-12-21T21:55:47.632Z,15.13
2018-12-21T21:58:16.371Z,17.37
2018-12-21T22:00:44.484Z,13.87
2018-12-21T22:03:12.669Z,16.47
2018-12-21T22:05:41.031Z,16.50
2018-12-21T22:08:09.137Z,16.47
2018-12-21T22:10:37.257Z,15.30
2018-12-21T22:13:05.399Z,16.00
2018-12-21T22:15:33.518Z,13.50
2018-12-21T22:18:01.733Z,15.60
2018-12-21T22:20:29.852Z,16.17
2018-12-21T22:22:57.989Z,14.17
2018-12-21T22:25:26.155Z,13.07
2018-12-21T22:27:54.285Z,15.00
2018-12-21T22:30:22.467Z,15.13
2018-12-21T22:32:51.671Z,13.57
2018-12-21T22:35:19.778Z,12.13
2018-12-21T22:37:47.898Z,13.97
2018-12-21T22:40:16.056Z,15.20
2018-12-21T22:42:44.166Z,14.60
2018-12-21T22:45:12.351Z,14.63
2018-12-21T22:47:40.462Z,13.37
2018-12-21T22:50:08.596Z,15.30
2018-12-21T22:52:37.522Z,14.37
2018-12-21T22:55:06.997Z,14.70
2018-12-21T22:57:36.125Z,13.33
2018-12-21T23:00:10.166Z,14.23
2018-12-21T23:02:38.320Z,14.23
2018-12-21T23:05:06.469Z,13.23
2018-12-21T23:07:34.696Z,14.83
2018-12-21T23:10:03.091Z,13.60
2018-12-21T23:12:31.254Z,13.77
2018-12-21T23:14:59.363Z,13.73
2018-12-21T23:17:27.486Z,12.70
2018-12-21T23:19:55.688Z,13.20
2018-12-21T23:22:31.079Z,12.27
2018-12-21T23:24:59.254Z,11.70
2018-12-21T23:27:27.383Z,14.97
2018-12-21T23:29:55.563Z,12.30
2018-12-21T23:32:23.711Z,13.50
2018-12-21T23:34:51.893Z,12.73
2018-12-21T23:37:20.002Z,11.77
2018-12-21T23:39:49.288Z,13.57
2018-12-21T23:42:18.083Z,13.53
2018-12-21T23:44:46.198Z,13.10
2018-12-21T23:47:14.415Z,12.47
2018-12-21T23:49:44.129Z,12.10
2018-12-21T23:52:12.251Z,12.17
2018-12-21T23:54:40.361Z,12.23
2018-12-21T23:57:08.513Z,11.80
2018-12-21T23:59:36.625Z,12.83
